Weather History for Hallock, MN

Change the Weather History Date:

Friday, May 10, 2013

  Actual Average Record
Temperature  
Mean Temperature 47 °F -  
Max Temperature 64 °F 65 °F 89 °F (1976)
Min Temperature 30 °F 40 °F 22 °F (1940)
Degree Days  
Heating Degree Days 18    
Moisture  
Dew Point 31 °F    
Average Humidity 53    
Maximum Humidity 86    
Minimum Humidity 30    
Precipitation  
Precipitation 0.00 in - - ()
Sea Level Pressure  
Sea Level Pressure 30.05 in    
Wind  
Wind Speed 12 mph (WNW)    
Max Wind Speed 31 mph    
Max Gust Speed 43 mph    
Visibility 10 miles    
Events      
Averages and records for this station are not official NWS values.
T = Trace of Precipitation, MM = Missing Value Source: NWS Daily Summary

Daily Weather History Graph

Daily Weather History Graph

Search for Another Location

Airport:

Trip Planner

Search our weather history database for the weather conditions in past years. The results will help you decide how hot, cold, wet, or windy it might be!

Date:

Astronomy

May. 10, 2013 Rise Set
Actual Time 5:52 AM CDT 8:56 PM CDT
Civil Twilight 5:15 AM CDT 9:33 PM CDT
Nautical Twilight 4:28 AM CDT 10:21 PM CDT
Astronomical Twilight 3:28 AM CDT 11:21 PM CDT
Moon 6:17 AM CDT (5/10) 9:48 PM CDT (5/10)
Length of Visible Light 16h 17m
Length of Day
15h 03m
New Moon, 0% of the Moon is Illuminated
May 10
New Moon
May 17
First Quarter
May 24
Full
May 31
Last Quarter
Jun 8
New

Hourly Weather History & Observations

Time (CDT) Temp. Windchill Dew Point Humidity Pressure Visibility Wind Dir Wind Speed Gust Speed Precip Events Conditions
12:13 AM 42.8 °F 38.6 °F 24.8 °F 49% 30.20 in 10.0 mi East 6.9 mph - N/A   Clear
12:33 AM 42.8 °F 38.0 °F 24.8 °F 49% 30.20 in 10.0 mi East 8.1 mph - N/A   Clear
12:53 AM 42.8 °F 38.6 °F 24.8 °F 49% 30.20 in 10.0 mi East 6.9 mph - N/A   Clear
1:12 AM 42.8 °F - 24.8 °F 49% 30.19 in 10.0 mi North - - N/A   Clear
1:33 AM 42.8 °F 38.0 °F 24.8 °F 49% 30.19 in 10.0 mi East 8.1 mph - N/A   Clear
1:53 AM 41.0 °F 35.2 °F 24.8 °F 53% 30.18 in 10.0 mi East 9.2 mph - N/A   Clear
2:13 AM - - - N/A% 30.17 in 10.0 mi East 8.1 mph - N/A   Unknown
2:32 AM 39.2 °F 33.6 °F 24.8 °F 56% 30.16 in 10.0 mi ESE 8.1 mph - N/A   Clear
2:53 AM 42.8 °F 37.5 °F 24.8 °F 49% 30.15 in 10.0 mi SE 9.2 mph - N/A   Clear
3:13 AM 41.0 °F 35.8 °F 24.8 °F 53% 30.14 in 10.0 mi SE 8.1 mph - N/A   Clear
3:53 AM 33.8 °F 28.6 °F 26.6 °F 75% 30.13 in 10.0 mi SSE 5.8 mph - N/A   Clear
4:13 AM 33.8 °F 27.7 °F 26.6 °F 75% 30.12 in 10.0 mi SSE 6.9 mph - N/A   Clear
4:33 AM 32.0 °F 28.7 °F 26.6 °F 80% 30.12 in 10.0 mi South 3.5 mph - N/A   Clear
4:54 AM 33.8 °F - 26.6 °F 75% 30.11 in 10.0 mi Calm Calm - N/A   Clear
5:13 AM 30.2 °F - 26.6 °F 86% 30.11 in 10.0 mi Calm Calm - N/A   Clear
5:33 AM 32.0 °F - 26.6 °F 80% 30.11 in 10.0 mi Calm Calm - N/A   Clear
5:53 AM 32.0 °F - 26.6 °F 80% 30.10 in 10.0 mi Calm Calm - N/A   Clear
6:13 AM 32.0 °F - 26.6 °F 80% 30.09 in 10.0 mi Calm Calm - N/A   Clear
6:33 AM 33.8 °F - 26.6 °F 75% 30.08 in 10.0 mi Calm Calm - N/A   Clear
7:13 AM 37.4 °F 31.4 °F 28.4 °F 70% 30.06 in 10.0 mi South 8.1 mph - N/A   Clear
7:33 AM 39.2 °F 33.0 °F 28.4 °F 65% 30.06 in 10.0 mi South 9.2 mph - N/A   Clear
8:12 AM 42.8 °F 36.2 °F 30.2 °F 61% 30.05 in 10.0 mi South 12.7 mph - N/A   Clear
8:33 AM 44.6 °F 38.1 °F 32.0 °F 61% 30.04 in 10.0 mi South 13.8 mph - N/A   Clear
8:53 AM 46.4 °F 39.5 °F 33.8 °F 62% 30.04 in 10.0 mi South 17.3 mph - N/A   Clear
9:13 AM 48.2 °F - 32.0 °F 54% 30.03 in 10.0 mi South 16.1 mph - N/A   Clear
9:33 AM 51.8 °F - 33.8 °F 50% 30.03 in 10.0 mi South 17.3 mph - N/A   Clear
9:53 AM 53.6 °F - 35.6 °F 51% 30.02 in 10.0 mi SSW 17.3 mph 21.9 mph N/A   Clear
10:08 AM 55.4 °F - 35.6 °F 47% 30.01 in 10.0 mi SSW 17.3 mph - N/A   Clear
10:33 AM 55.4 °F - 35.6 °F 47% 29.99 in 10.0 mi SSW 16.1 mph - N/A   Clear
10:53 AM 57.2 °F - 37.4 °F 48% 29.97 in 10.0 mi SSW 17.3 mph 21.9 mph N/A   Clear
11:13 AM 57.2 °F - 37.4 °F 48% 29.96 in 10.0 mi SSW 16.1 mph 21.9 mph N/A   Clear
11:33 AM 59.0 °F - 39.2 °F 48% 29.95 in 10.0 mi SSW 19.6 mph - N/A   Clear
12:13 PM 60.8 °F - 42.8 °F 52% 29.93 in 10.0 mi SSW 19.6 mph - N/A   Clear
12:33 PM 62.6 °F - 35.6 °F 37% 29.93 in 10.0 mi SSW 16.1 mph - N/A   Clear
12:53 PM 62.6 °F - 32.0 °F 32% 29.93 in 10.0 mi WSW 16.1 mph - N/A   Scattered Clouds
1:12 PM 62.6 °F - 30.2 °F 30% 29.93 in 10.0 mi West 16.1 mph - N/A   Scattered Clouds
1:33 PM 62.6 °F - 33.8 °F 34% 29.92 in 10.0 mi West 15.0 mph 19.6 mph N/A   Scattered Clouds
1:53 PM 64.4 °F - 32.0 °F 30% 29.91 in 10.0 mi West 19.6 mph 27.6 mph N/A   Scattered Clouds
2:13 PM 62.6 °F - 32.0 °F 32% 29.92 in 10.0 mi West 16.1 mph 27.6 mph N/A   Mostly Cloudy
2:33 PM 60.8 °F - 33.8 °F 36% 29.92 in 10.0 mi NW 20.7 mph 31.1 mph N/A   Overcast
2:53 PM 62.6 °F - 33.8 °F 34% 29.92 in 10.0 mi NW 23.0 mph 29.9 mph N/A   Scattered Clouds
3:13 PM 60.8 °F - 35.6 °F 39% 29.93 in 10.0 mi NNW 28.8 mph 34.5 mph N/A   Clear
3:33 PM 57.2 °F - 39.2 °F 51% 29.95 in 10.0 mi NNW 29.9 mph 40.3 mph N/A   Clear
3:53 PM 55.4 °F - 39.2 °F 54% 29.95 in 10.0 mi NNW 31.1 mph 39.1 mph N/A   Scattered Clouds
4:13 PM 55.4 °F - 37.4 °F 51% 29.96 in 10.0 mi NNW 28.8 mph 42.6 mph N/A   Scattered Clouds
4:33 PM 55.4 °F - 37.4 °F 51% 29.98 in 10.0 mi NNW 31.1 mph 40.3 mph N/A   Clear
4:53 PM 55.4 °F - 35.6 °F 47% 29.99 in 10.0 mi NNW 29.9 mph 41.4 mph N/A   Clear
5:34 PM 55.4 °F - 35.6 °F 47% 30.00 in 10.0 mi NNW 31.1 mph 39.1 mph N/A   Scattered Clouds
5:53 PM 53.6 °F - 35.6 °F 51% 30.01 in 10.0 mi NNW 26.5 mph 38.0 mph N/A   Scattered Clouds
6:13 PM 53.6 °F - 33.8 °F 47% 30.02 in 10.0 mi NNW 29.9 mph 38.0 mph N/A   Scattered Clouds
6:34 PM 51.8 °F - 33.8 °F 50% 30.03 in 10.0 mi NNW 27.6 mph 34.5 mph N/A   Scattered Clouds
6:53 PM 51.8 °F - 30.2 °F 44% 30.04 in 10.0 mi NNW 29.9 mph 38.0 mph N/A   Clear
7:13 PM 51.8 °F - 28.4 °F 41% 30.05 in 10.0 mi NNW 24.2 mph 35.7 mph N/A   Clear
7:34 PM 50.0 °F - 28.4 °F 43% 30.05 in 10.0 mi NNW 28.8 mph 35.7 mph N/A   Clear
7:53 PM 48.2 °F - 24.8 °F 40% 30.05 in 10.0 mi NNW 28.8 mph 36.8 mph N/A   Clear
8:13 PM 48.2 °F - 23.0 °F 37% 30.05 in 10.0 mi North 21.9 mph 29.9 mph N/A   Clear
8:34 PM 46.4 °F 39.2 °F 26.6 °F 46% 30.06 in 10.0 mi North 18.4 mph 26.5 mph N/A   Clear
8:53 PM 46.4 °F 39.8 °F 28.4 °F 50% 30.06 in 10.0 mi North 16.1 mph - N/A   Clear
9:13 PM 44.6 °F 38.1 °F 28.4 °F 53% 30.07 in 10.0 mi North 13.8 mph - N/A   Clear
9:33 PM 44.6 °F 39.2 °F 28.4 °F 53% 30.08 in 10.0 mi NNW 10.4 mph - N/A   Clear
9:53 PM 41.0 °F 35.2 °F 26.6 °F 57% 30.09 in 10.0 mi NNW 9.2 mph - N/A   Clear
10:13 PM 41.0 °F 35.2 °F 26.6 °F 57% 30.10 in 10.0 mi NNW 9.2 mph - N/A   Clear
10:33 PM 39.2 °F 34.2 °F 28.4 °F 65% 30.11 in 10.0 mi NNW 6.9 mph - N/A   Clear
10:53 PM 39.2 °F 32.5 °F 26.6 °F 61% 30.12 in 10.0 mi NW 10.4 mph - N/A   Clear
11:13 PM 39.2 °F 29.8 °F 28.4 °F 65% 30.13 in 10.0 mi NW 18.4 mph 23.0 mph N/A   Scattered Clouds
11:33 PM 42.8 °F 33.8 °F 30.2 °F 61% 30.14 in 10.0 mi NNW 21.9 mph 33.4 mph N/A   Mostly Cloudy
11:53 PM 41.0 °F 30.5 °F 33.8 °F 76% 30.14 in 10.0 mi NNW 26.5 mph 32.2 mph N/A   Light Drizzle